createdAt,value
2022-10-09T00:03:59.135Z,98.40
2022-10-09T00:08:03.425Z,98.30
2022-10-09T00:12:06.443Z,98.30
2022-10-09T00:16:11.428Z,98.30
2022-10-09T00:20:14.568Z,98.30
2022-10-09T00:24:19.313Z,98.20
2022-10-09T00:28:22.807Z,98.30
2022-10-09T00:32:25.873Z,98.40
2022-10-09T00:36:28.963Z,98.40
2022-10-09T00:40:33.428Z,98.40
2022-10-09T00:44:54.367Z,98.40
2022-10-09T00:49:06.483Z,98.50
2022-10-09T00:53:11.965Z,98.60
2022-10-09T00:57:19.414Z,98.60
2022-10-09T01:01:22.696Z,98.60
2022-10-09T01:05:34.482Z,98.80
2022-10-09T01:09:43.344Z,98.90
2022-10-09T01:13:54.535Z,99.00
2022-10-09T01:18:06.228Z,99.00
2022-10-09T01:22:20.499Z,99.10
2022-10-09T01:26:59.061Z,99.10
2022-10-09T01:31:05.825Z,99.00
2022-10-09T01:35:11.920Z,98.90
2022-10-09T01:39:18.743Z,98.90
2022-10-09T01:43:21.926Z,98.80
2022-10-09T01:47:26.762Z,99.00
2022-10-09T01:51:37.515Z,99.10
2022-10-09T01:55:49.509Z,99.10
2022-10-09T01:59:53.927Z,99.10
2022-10-09T02:04:00.938Z,99.10
2022-10-09T02:08:04.508Z,99.20
2022-10-09T02:12:10.845Z,99.20
2022-10-09T02:16:22.273Z,99.20
2022-10-09T02:20:31.371Z,99.30
2022-10-09T02:24:34.863Z,99.50
2022-10-09T02:28:42.581Z,99.50
2022-10-09T02:32:52.895Z,99.40
2022-10-09T02:36:57.852Z,99.40
2022-10-09T02:41:03.934Z,99.40
2022-10-09T02:45:10.863Z,99.30
2022-10-09T02:49:13.815Z,99.30
2022-10-09T02:53:18.261Z,99.40
2022-10-09T02:57:21.154Z,99.30
2022-10-09T03:01:24.705Z,99.40
2022-10-09T03:05:27.542Z,99.50
2022-10-09T03:09:33.867Z,99.40
2022-10-09T03:13:37.223Z,99.30
2022-10-09T03:17:40.425Z,99.40
2022-10-09T03:21:43.299Z,99.50
2022-10-09T03:25:56.558Z,99.60
2022-10-09T03:29:59.424Z,99.80
2022-10-09T03:34:02.248Z,99.60
2022-10-09T03:38:05.107Z,99.50
2022-10-09T03:42:09.332Z,99.50
2022-10-09T03:46:12.677Z,99.50
2022-10-09T03:50:15.831Z,99.60
2022-10-09T03:54:18.698Z,99.60
2022-10-09T03:58:22.924Z,99.50
2022-10-09T04:02:25.865Z,99.50
2022-10-09T04:06:28.739Z,99.50
2022-10-09T04:10:31.631Z,99.60
2022-10-09T04:14:35.837Z,99.70
2022-10-09T04:18:39.372Z,99.80
2022-10-09T04:22:42.240Z,99.80
2022-10-09T04:26:45.077Z,99.60
2022-10-09T04:30:49.230Z,99.70
2022-10-09T04:34:52.037Z,99.90
2022-10-09T04:38:55.105Z,99.80
2022-10-09T04:42:57.906Z,99.80
2022-10-09T04:47:02.118Z,99.80
2022-10-09T04:51:06.247Z,99.70
2022-10-09T04:55:09.819Z,99.60
2022-10-09T04:59:12.621Z,99.60
2022-10-09T05:03:16.844Z,99.50
2022-10-09T05:07:19.633Z,99.70
2022-10-09T05:11:26.167Z,99.70
2022-10-09T05:15:29.023Z,99.80
2022-10-09T05:19:33.350Z,99.80
2022-10-09T05:23:36.416Z,99.80
2022-10-09T05:27:39.519Z,99.90
2022-10-09T05:31:46.913Z,99.90
2022-10-09T05:35:54.901Z,99.90
2022-10-09T05:39:57.698Z,99.80
2022-10-09T05:44:03.515Z,99.80
2022-10-09T05:48:07.086Z,99.90
2022-10-09T05:52:11.242Z,99.90
2022-10-09T05:56:16.406Z,99.90
2022-10-09T06:00:19.388Z,99.90
2022-10-09T06:04:24.446Z,99.90
2022-10-09T06:08:28.662Z,99.90
2022-10-09T06:12:31.527Z,99.90
2022-10-09T06:16:36.165Z,99.90
2022-10-09T06:20:39.058Z,99.90
2022-10-09T06:24:43.215Z,99.90
2022-10-09T06:28:50.610Z,99.90
2022-10-09T06:32:53.671Z,99.90
2022-10-09T06:36:56.555Z,99.90
2022-10-09T06:41:04.623Z,99.90
2022-10-09T06:45:08.581Z,99.90
2022-10-09T06:49:12.356Z,99.90
2022-10-09T06:53:15.217Z,99.90
2022-10-09T06:57:19.373Z,99.90
2022-10-09T07:01:24.988Z,99.90
2022-10-09T07:05:27.871Z,99.90
2022-10-09T07:09:31.064Z,99.90
2022-10-09T07:13:35.272Z,99.90
2022-10-09T07:17:38.292Z,99.90
2022-10-09T07:21:42.833Z,99.90
2022-10-09T07:25:45.670Z,99.90
2022-10-09T07:29:49.955Z,99.90
2022-10-09T07:33:54.885Z,99.90
2022-10-09T07:37:57.714Z,99.90
2022-10-09T07:42:00.526Z,99.90
2022-10-09T07:46:06.290Z,99.90
2022-10-09T07:50:09.436Z,99.90
2022-10-09T07:54:15.501Z,99.90
2022-10-09T07:58:18.666Z,99.90
2022-10-09T08:02:22.876Z,99.90
2022-10-09T08:06:25.780Z,99.90
2022-10-09T08:10:31.039Z,99.80
2022-10-09T08:14:34.099Z,99.20
2022-10-09T08:18:38.566Z,99.00
2022-10-09T08:22:41.397Z,98.40
2022-10-09T08:26:45.280Z,97.30
2022-10-09T08:30:48.168Z,96.90
2022-10-09T08:34:53.027Z,96.40
2022-10-09T08:38:57.369Z,95.70
2022-10-09T08:43:06.110Z,95.50
2022-10-09T08:47:14.345Z,94.60
2022-10-09T08:51:23.400Z,93.90
2022-10-09T08:55:29.025Z,93.80
2022-10-09T08:59:32.538Z,93.20
2022-10-09T09:03:52.919Z,92.90
2022-10-09T09:08:06.479Z,92.50
2022-10-09T09:12:19.097Z,91.60
2022-10-09T09:16:29.931Z,90.90
2022-10-09T09:20:48.829Z,90.40
2022-10-09T09:24:57.419Z,89.90
2022-10-09T09:29:03.422Z,87.50
2022-10-09T09:33:16.478Z,85.70
2022-10-09T09:37:19.348Z,83.40
2022-10-09T09:41:24.040Z,79.70
2022-10-09T09:45:27.427Z,80.10
2022-10-09T09:49:31.018Z,78.50
2022-10-09T09:53:37.586Z,75.30
2022-10-09T09:57:46.212Z,76.50
2022-10-09T10:01:49.464Z,75.90
2022-10-09T10:05:52.645Z,73.40
2022-10-09T10:10:03.754Z,74.30
2022-10-09T10:14:10.074Z,75.60
2022-10-09T10:18:15.900Z,74.00
2022-10-09T10:22:25.925Z,73.10
2022-10-09T10:26:34.561Z,73.30
2022-10-09T10:30:40.707Z,74.50
2022-10-09T10:34:48.736Z,71.00
2022-10-09T10:38:56.204Z,71.90
2022-10-09T10:43:15.795Z,70.90
2022-10-09T10:47:25.236Z,69.90
2022-10-09T10:51:38.942Z,70.20
2022-10-09T10:55:52.904Z,70.20
2022-10-09T11:00:05.851Z,68.90
2022-10-09T11:04:29.916Z,69.40
2022-10-09T11:08:48.679Z,67.60
2022-10-09T11:12:58.054Z,67.20
2022-10-09T11:17:07.936Z,66.20
2022-10-09T11:21:25.757Z,68.00
2022-10-09T11:25:36.485Z,68.20
2022-10-09T11:29:42.671Z,68.20
2022-10-09T11:33:49.771Z,67.00
2022-10-09T11:37:59.721Z,67.10
2022-10-09T11:42:03.106Z,64.50
2022-10-09T11:46:10.153Z,65.40
2022-10-09T11:50:34.881Z,67.10
2022-10-09T11:54:40.869Z,68.10
2022-10-09T11:58:43.832Z,67.50
2022-10-09T12:02:59.037Z,65.90
2022-10-09T12:07:07.087Z,66.30
2022-10-09T12:11:15.416Z,65.60
2022-10-09T12:15:27.313Z,64.80
2022-10-09T12:19:36.116Z,64.60
2022-10-09T12:23:41.022Z,64.60
2022-10-09T12:27:46.274Z,64.90
2022-10-09T12:31:53.809Z,65.20
2022-10-09T12:36:04.897Z,64.50
2022-10-09T12:40:10.563Z,66.20
2022-10-09T12:44:25.317Z,64.70
2022-10-09T12:48:30.077Z,64.40
2022-10-09T12:52:33.454Z,65.80
2022-10-09T12:56:38.804Z,66.60
2022-10-09T13:00:43.809Z,65.50
2022-10-09T13:04:57.323Z,66.30
2022-10-09T13:09:03.028Z,63.40
2022-10-09T13:13:05.943Z,62.80
2022-10-09T13:17:23.630Z,63.00
2022-10-09T13:21:31.351Z,63.60
2022-10-09T13:25:40.009Z,61.20
2022-10-09T13:29:43.871Z,58.10
2022-10-09T13:33:49.168Z,59.60
2022-10-09T13:37:52.531Z,57.60
2022-10-09T13:41:57.410Z,58.10
2022-10-09T13:46:00.413Z,56.70
2022-10-09T13:50:05.457Z,57.30
2022-10-09T13:54:08.340Z,56.50
2022-10-09T13:58:11.172Z,56.90
2022-10-09T14:02:14.266Z,57.00
2022-10-09T14:06:19.094Z,55.50
2022-10-09T14:10:23.855Z,55.70
2022-10-09T14:14:27.017Z,56.40
2022-10-09T14:18:29.861Z,54.80
2022-10-09T14:22:34.315Z,55.30
2022-10-09T14:26:37.143Z,55.30
2022-10-09T14:30:41.227Z,55.00
2022-10-09T14:34:44.112Z,55.00
2022-10-09T14:38:49.430Z,55.80
2022-10-09T14:42:52.668Z,56.50
2022-10-09T14:46:55.602Z,55.50
2022-10-09T14:51:03.591Z,55.70
2022-10-09T14:55:08.748Z,56.80
2022-10-09T14:59:11.600Z,55.60
2022-10-09T15:03:14.423Z,55.80
2022-10-09T15:07:17.238Z,56.60
2022-10-09T15:11:21.494Z,57.20
2022-10-09T15:15:26.149Z,56.80
2022-10-09T15:19:30.832Z,56.80
2022-10-09T15:23:33.689Z,56.20
2022-10-09T15:27:37.900Z,56.40
2022-10-09T15:31:41.931Z,57.50
2022-10-09T15:35:44.790Z,58.30
2022-10-09T15:39:47.634Z,58.60
2022-10-09T15:43:52.994Z,58.80
2022-10-09T15:47:55.823Z,58.70
2022-10-09T15:51:58.663Z,57.30
2022-10-09T15:56:06.469Z,57.40
2022-10-09T16:00:11.942Z,58.80
2022-10-09T16:04:15.824Z,59.60
2022-10-09T16:08:19.861Z,60.90
2022-10-09T16:12:22.683Z,63.20
2022-10-09T16:16:28.252Z,63.20
2022-10-09T16:20:31.047Z,65.80
2022-10-09T16:24:33.942Z,66.90
2022-10-09T16:28:37.683Z,67.10
2022-10-09T16:32:42.058Z,69.10
2022-10-09T16:36:45.272Z,71.00
2022-10-09T16:41:01.854Z,72.80
2022-10-09T16:45:06.515Z,73.60
2022-10-09T16:49:19.895Z,74.60
2022-10-09T16:53:25.628Z,75.90
2022-10-09T16:57:29.055Z,77.30
2022-10-09T17:01:35.312Z,78.20
2022-10-09T17:05:40.662Z,79.90
2022-10-09T17:09:43.504Z,80.80
2022-10-09T17:13:47.470Z,81.70
2022-10-09T17:17:50.562Z,82.60
2022-10-09T17:21:54.959Z,83.60
2022-10-09T17:25:57.847Z,83.80
2022-10-09T17:30:00.716Z,83.40
2022-10-09T17:34:05.161Z,83.70
2022-10-09T17:38:10.080Z,83.80
2022-10-09T17:42:12.925Z,83.70
2022-10-09T17:46:16.297Z,82.90
2022-10-09T17:50:19.306Z,82.60
2022-10-09T17:54:23.495Z,82.40
2022-10-09T17:58:26.343Z,82.50
2022-10-09T18:02:29.439Z,82.70
2022-10-09T18:06:34.206Z,83.10
2022-10-09T18:10:38.759Z,83.70
2022-10-09T18:14:41.633Z,84.10
2022-10-09T18:18:44.639Z,84.80
2022-10-09T18:22:47.683Z,85.50
2022-10-09T18:26:51.873Z,86.00
2022-10-09T18:30:56.032Z,86.60
2022-10-09T18:34:59.015Z,87.20
2022-10-09T18:39:04.658Z,87.40
2022-10-09T18:43:09.751Z,87.80
2022-10-09T18:47:17.048Z,88.30
2022-10-09T18:51:21.994Z,88.70
2022-10-09T18:55:24.887Z,88.60
2022-10-09T18:59:30.032Z,89.70
2022-10-09T19:03:32.990Z,90.40
2022-10-09T19:07:36.025Z,90.90
2022-10-09T19:11:39.043Z,91.30
2022-10-09T19:15:43.340Z,91.60
2022-10-09T19:19:46.324Z,91.70
2022-10-09T19:23:50.187Z,91.60
2022-10-09T19:27:53.233Z,91.80
2022-10-09T19:31:57.452Z,92.00
2022-10-09T19:36:00.570Z,92.00
2022-10-09T19:40:03.413Z,92.10
2022-10-09T19:44:06.348Z,92.30
2022-10-09T19:48:10.993Z,92.60
2022-10-09T19:52:14.109Z,93.20
2022-10-09T19:56:19.299Z,93.00
2022-10-09T20:00:22.098Z,93.40
2022-10-09T20:04:26.302Z,93.50
2022-10-09T20:08:29.286Z,93.80
2022-10-09T20:12:32.138Z,94.00
2022-10-09T20:16:35.201Z,94.30
2022-10-09T20:20:39.408Z,94.30
2022-10-09T20:24:42.400Z,94.60
2022-10-09T20:28:46.178Z,94.70
2022-10-09T20:32:49.630Z,94.80
2022-10-09T20:36:56.837Z,94.50
2022-10-09T20:41:03.749Z,94.50
2022-10-09T20:45:07.325Z,93.90
2022-10-09T20:49:17.193Z,93.70
2022-10-09T20:53:21.452Z,93.70
2022-10-09T20:57:24.670Z,93.70
2022-10-09T21:01:28.350Z,93.80
2022-10-09T21:05:37.052Z,93.30
2022-10-09T21:09:43.028Z,92.90
2022-10-09T21:13:46.679Z,92.90
2022-10-09T21:17:49.558Z,93.00
2022-10-09T21:21:52.397Z,92.90
2022-10-09T21:25:56.765Z,92.90
2022-10-09T21:29:59.545Z,92.80
2022-10-09T21:34:02.951Z,92.70
2022-10-09T21:38:05.812Z,92.60
2022-10-09T21:42:09.970Z,92.40
2022-10-09T21:46:12.817Z,92.30
2022-10-09T21:50:15.874Z,92.00
2022-10-09T21:54:18.861Z,91.90
2022-10-09T21:58:23.125Z,91.80
2022-10-09T22:02:26.082Z,91.70
2022-10-09T22:06:28.890Z,91.50
2022-10-09T22:10:31.832Z,91.20
2022-10-09T22:14:36.054Z,91.20
2022-10-09T22:18:39.254Z,91.00
2022-10-09T22:22:42.283Z,90.90
2022-10-09T22:26:45.194Z,90.80
2022-10-09T22:30:49.388Z,90.80
2022-10-09T22:34:52.506Z,90.70
2022-10-09T22:38:56.873Z,90.60
2022-10-09T22:42:59.731Z,90.40
2022-10-09T22:47:03.899Z,90.50
2022-10-09T22:51:08.251Z,90.60
2022-10-09T22:55:11.134Z,90.70
2022-10-09T22:59:16.542Z,90.80
2022-10-09T23:03:20.725Z,90.70
2022-10-09T23:07:23.532Z,90.70
2022-10-09T23:11:27.556Z,90.90
2022-10-09T23:15:30.390Z,90.90
2022-10-09T23:19:34.819Z,91.10
2022-10-09T23:23:38.013Z,91.20
2022-10-09T23:27:40.864Z,91.30
2022-10-09T23:31:43.806Z,91.50
2022-10-09T23:35:47.983Z,91.70
2022-10-09T23:39:50.788Z,91.80
2022-10-09T23:43:54.566Z,91.80
2022-10-09T23:47:57.391Z,92.30
2022-10-09T23:52:01.571Z,92.30
2022-10-09T23:56:06.914Z,92.40
